createdAt,value
2018-12-26T00:02:38.162Z,21.20
2018-12-26T00:05:18.565Z,21.20
2018-12-26T00:07:58.511Z,21.00
2018-12-26T00:10:38.713Z,20.53
2018-12-26T00:13:18.780Z,21.10
2018-12-26T00:15:58.959Z,22.23
2018-12-26T00:18:38.950Z,18.50
2018-12-26T00:21:19.057Z,19.37
2018-12-26T00:23:59.023Z,22.07
2018-12-26T00:26:39.095Z,19.80
2018-12-26T00:29:19.008Z,18.83
2018-12-26T00:31:59.212Z,18.97
2018-12-26T00:34:39.083Z,19.50
2018-12-26T00:37:18.997Z,18.37
2018-12-26T00:39:58.928Z,20.13
2018-12-26T00:42:39.199Z,20.47
2018-12-26T00:45:19.003Z,20.53
2018-12-26T00:47:59.259Z,18.23
2018-12-26T00:50:39.015Z,21.77
2018-12-26T00:53:19.038Z,20.77
2018-12-26T00:55:59.118Z,20.80
2018-12-26T00:58:39.154Z,19.37
2018-12-26T01:01:19.131Z,18.23
2018-12-26T01:03:59.116Z,19.93
2018-12-26T01:06:39.304Z,20.20
2018-12-26T01:09:19.348Z,19.67
2018-12-26T01:11:59.295Z,20.53
2018-12-26T01:14:39.288Z,21.07
2018-12-26T01:17:19.419Z,21.17
2018-12-26T01:19:59.359Z,19.27
2018-12-26T01:22:39.550Z,22.27
2018-12-26T01:25:19.376Z,19.40
2018-12-26T01:27:59.360Z,19.60
2018-12-26T01:30:39.241Z,18.67
2018-12-26T01:33:19.407Z,22.40
2018-12-26T01:35:59.491Z,20.13
2018-12-26T01:38:39.334Z,19.30
2018-12-26T01:41:19.425Z,24.00
2018-12-26T01:43:59.832Z,18.67
2018-12-26T01:46:39.676Z,20.60
2018-12-26T01:49:19.737Z,20.17
2018-12-26T01:51:59.708Z,21.47
2018-12-26T01:54:39.706Z,18.00
2018-12-26T01:57:19.723Z,18.83
2018-12-26T01:59:59.736Z,22.13
2018-12-26T02:02:39.720Z,20.30
2018-12-26T02:05:19.591Z,19.87
2018-12-26T02:07:59.622Z,19.67
2018-12-26T02:10:39.708Z,22.03
2018-12-26T02:13:19.706Z,21.40
2018-12-26T02:15:59.800Z,18.90
2018-12-26T02:18:39.830Z,22.10
2018-12-26T02:21:19.665Z,19.10
2018-12-26T02:23:59.467Z,22.80
2018-12-26T02:26:39.429Z,21.47
2018-12-26T02:29:19.422Z,21.73
2018-12-26T02:31:59.850Z,19.90
2018-12-26T02:34:39.922Z,22.07
2018-12-26T02:37:19.757Z,20.80
2018-12-26T02:39:59.875Z,25.43
2018-12-26T02:42:40.011Z,19.90
2018-12-26T02:45:20.007Z,23.33
2018-12-26T02:47:59.878Z,19.70
2018-12-26T02:50:40.114Z,22.17
2018-12-26T02:53:20.081Z,22.27
2018-12-26T02:56:00.358Z,22.30
2018-12-26T02:58:40.254Z,22.43
2018-12-26T03:01:20.358Z,22.20
2018-12-26T03:04:00.475Z,20.57
2018-12-26T03:06:40.798Z,19.80
2018-12-26T03:09:20.685Z,20.93
2018-12-26T03:12:00.763Z,21.57
2018-12-26T03:14:40.958Z,19.30
2018-12-26T03:17:21.192Z,19.57
2018-12-26T03:20:01.193Z,21.70
2018-12-26T03:22:41.467Z,20.37
2018-12-26T03:25:21.315Z,20.27
2018-12-26T03:28:01.344Z,20.03
2018-12-26T03:30:41.223Z,17.37
2018-12-26T03:33:21.138Z,18.30
2018-12-26T03:36:01.169Z,22.00
2018-12-26T03:38:41.070Z,19.40
2018-12-26T03:41:21.182Z,20.97
2018-12-26T03:44:01.142Z,19.53
2018-12-26T03:46:41.161Z,22.87
2018-12-26T03:49:20.974Z,18.50
2018-12-26T03:52:02.247Z,18.53
2018-12-26T03:54:42.031Z,19.93
2018-12-26T03:57:21.975Z,21.47
2018-12-26T04:00:02.001Z,20.67
2018-12-26T04:02:42.181Z,20.17
2018-12-26T04:05:22.140Z,19.77
2018-12-26T04:08:02.280Z,18.87
2018-12-26T04:10:42.352Z,20.80
2018-12-26T04:13:22.363Z,19.93
2018-12-26T04:16:02.393Z,20.57
2018-12-26T04:18:42.469Z,21.90
2018-12-26T04:21:22.360Z,21.23
2018-12-26T04:24:02.638Z,24.03
2018-12-26T04:26:42.820Z,24.10
2018-12-26T04:29:23.014Z,21.67
2018-12-26T04:32:03.315Z,22.83
2018-12-26T04:34:43.521Z,28.43
2018-12-26T04:37:23.562Z,22.50
2018-12-26T04:40:03.800Z,19.40
2018-12-26T04:42:43.558Z,21.13
2018-12-26T04:45:23.790Z,23.97
2018-12-26T04:48:03.682Z,21.33
2018-12-26T04:50:43.660Z,21.97
2018-12-26T04:53:23.834Z,23.87
2018-12-26T04:56:03.933Z,23.00
2018-12-26T04:58:43.941Z,26.40
2018-12-26T05:01:24.071Z,21.97
2018-12-26T05:04:04.082Z,22.90
2018-12-26T05:06:44.346Z,24.03
2018-12-26T05:09:24.193Z,28.90
2018-12-26T05:12:05.714Z,28.80
2018-12-26T05:14:46.062Z,27.57
2018-12-26T05:17:26.067Z,26.57
2018-12-26T05:20:05.790Z,28.13
2018-12-26T05:22:45.817Z,24.77
2018-12-26T05:25:25.679Z,26.23
2018-12-26T05:28:05.801Z,29.83
2018-12-26T05:30:45.785Z,35.50
2018-12-26T05:33:26.014Z,33.23
2018-12-26T05:36:05.954Z,27.97
2018-12-26T05:38:46.278Z,29.10
2018-12-26T05:41:26.454Z,28.50
2018-12-26T05:44:06.506Z,30.63
2018-12-26T05:46:46.537Z,30.90
2018-12-26T05:49:14.210Z,34.33
2018-12-26T05:52:01.338Z,31.07
2018-12-26T05:54:48.466Z,30.13
2018-12-26T05:57:28.682Z,29.40
2018-12-26T06:00:08.726Z,36.23
2018-12-26T06:02:49.014Z,33.63
2018-12-26T06:05:29.091Z,34.97
2018-12-26T06:08:09.014Z,34.37
2018-12-26T06:10:49.011Z,32.33
2018-12-26T06:13:28.825Z,32.60
2018-12-26T06:16:08.801Z,37.50
2018-12-26T06:18:48.786Z,35.10
2018-12-26T06:21:28.841Z,34.70
2018-12-26T06:24:08.876Z,32.20
2018-12-26T06:26:48.832Z,33.53
2018-12-26T06:29:28.724Z,37.13
2018-12-26T06:32:08.748Z,35.20
2018-12-26T06:34:48.827Z,33.33
2018-12-26T06:37:28.759Z,32.27
2018-12-26T06:40:08.710Z,32.43
2018-12-26T06:42:48.510Z,30.67
2018-12-26T06:45:28.458Z,31.83
2018-12-26T06:48:08.658Z,34.93
2018-12-26T06:50:49.070Z,31.23
2018-12-26T06:53:29.012Z,32.50
2018-12-26T06:56:09.141Z,32.67
2018-12-26T06:58:49.116Z,32.93
2018-12-26T07:01:29.150Z,33.67
2018-12-26T07:04:09.048Z,31.93
2018-12-26T07:06:49.049Z,37.87
2018-12-26T07:09:29.175Z,37.87
2018-12-26T07:12:09.084Z,36.30
2018-12-26T07:14:49.101Z,36.70
2018-12-26T07:17:29.189Z,42.00
2018-12-26T07:20:08.997Z,39.80
2018-12-26T07:22:48.956Z,37.97
2018-12-26T07:25:29.020Z,36.47
2018-12-26T07:28:09.522Z,35.57
2018-12-26T07:30:50.079Z,36.77
2018-12-26T07:33:30.172Z,34.77
2018-12-26T07:36:10.189Z,35.70
2018-12-26T07:38:50.173Z,38.23
2018-12-26T07:41:30.258Z,38.17
2018-12-26T07:44:10.280Z,37.67
2018-12-26T07:46:50.161Z,34.33
2018-12-26T07:49:30.320Z,36.37
2018-12-26T07:52:10.360Z,36.07
2018-12-26T07:54:50.759Z,35.27
2018-12-26T07:57:30.773Z,34.77
2018-12-26T08:00:10.724Z,34.87
2018-12-26T08:02:50.910Z,32.13
2018-12-26T08:05:30.868Z,34.17
2018-12-26T08:08:10.802Z,33.40
2018-12-26T08:10:50.736Z,31.93
2018-12-26T08:13:31.086Z,34.47
2018-12-26T08:16:10.933Z,37.13
2018-12-26T08:18:51.169Z,39.13
2018-12-26T08:21:31.223Z,35.13
2018-12-26T08:24:11.221Z,34.47
2018-12-26T08:26:51.278Z,37.73
2018-12-26T08:29:33.353Z,37.40
2018-12-26T08:32:13.473Z,40.37
2018-12-26T08:34:53.722Z,39.67
2018-12-26T08:37:34.303Z,41.63
2018-12-26T08:40:14.103Z,42.30
2018-12-26T08:42:54.199Z,38.87
2018-12-26T08:45:34.485Z,36.43
2018-12-26T08:48:14.496Z,41.17
2018-12-26T08:50:54.702Z,43.00
2018-12-26T08:53:34.818Z,36.80
2018-12-26T08:56:15.021Z,43.00
2018-12-26T08:58:56.851Z,45.63
2018-12-26T09:01:37.270Z,44.53
2018-12-26T09:04:17.105Z,37.90
2018-12-26T09:06:57.130Z,42.97
2018-12-26T09:09:37.363Z,41.03
2018-12-26T09:12:17.357Z,43.63
2018-12-26T09:14:57.239Z,44.20
2018-12-26T09:17:37.280Z,40.53
2018-12-26T09:20:17.481Z,40.60
2018-12-26T09:22:57.601Z,43.33
2018-12-26T09:25:37.506Z,42.50
2018-12-26T09:28:17.377Z,43.00
2018-12-26T09:30:57.277Z,42.47
2018-12-26T09:33:37.267Z,43.13
2018-12-26T09:36:17.289Z,46.27
2018-12-26T09:38:57.261Z,43.07
2018-12-26T09:41:37.206Z,42.50
2018-12-26T09:44:17.235Z,41.67
2018-12-26T09:46:57.271Z,37.60
2018-12-26T09:49:37.454Z,45.90
2018-12-26T09:52:17.429Z,46.23
2018-12-26T09:54:57.434Z,45.90
2018-12-26T09:57:37.532Z,45.57
2018-12-26T10:00:17.473Z,46.97
2018-12-26T10:02:57.632Z,48.53
2018-12-26T10:05:37.569Z,48.00
2018-12-26T10:08:17.467Z,48.40
2018-12-26T10:10:57.641Z,46.53
2018-12-26T10:13:37.583Z,49.77
2018-12-26T10:16:17.356Z,47.77
2018-12-26T10:18:57.534Z,43.87
2018-12-26T10:21:37.595Z,47.93
2018-12-26T10:24:17.536Z,46.63
2018-12-26T10:26:57.553Z,47.93
2018-12-26T10:29:37.700Z,50.93
2018-12-26T10:32:17.489Z,51.23
2018-12-26T10:34:57.521Z,41.90
2018-12-26T10:37:37.393Z,56.97
2018-12-26T10:40:17.474Z,48.20
2018-12-26T10:42:57.373Z,48.17
2018-12-26T10:45:37.422Z,56.63
2018-12-26T10:48:17.426Z,48.83
2018-12-26T10:50:57.285Z,52.60
2018-12-26T10:53:37.167Z,49.17
2018-12-26T10:56:17.327Z,47.20
2018-12-26T10:58:57.085Z,52.47
2018-12-26T11:01:37.185Z,55.40
2018-12-26T11:04:17.077Z,50.67
2018-12-26T11:06:56.873Z,50.40
2018-12-26T11:09:36.839Z,49.93
2018-12-26T11:12:16.889Z,54.30
2018-12-26T11:14:56.955Z,47.17
2018-12-26T11:17:36.926Z,48.23
2018-12-26T11:20:16.967Z,54.30
2018-12-26T11:22:57.000Z,55.90
2018-12-26T11:25:36.565Z,51.97
2018-12-26T11:28:16.652Z,59.93
2018-12-26T11:30:56.387Z,55.20
2018-12-26T11:33:36.377Z,54.90
2018-12-26T11:36:16.045Z,55.37
2018-12-26T11:38:56.090Z,56.10
2018-12-26T11:41:35.981Z,54.93
2018-12-26T11:44:16.014Z,55.33
2018-12-26T11:46:56.982Z,55.17
2018-12-26T11:49:37.492Z,57.77
2018-12-26T11:52:17.664Z,50.50
2018-12-26T11:54:57.850Z,59.27
2018-12-26T11:57:37.733Z,55.33
2018-12-26T12:00:17.639Z,52.77
2018-12-26T12:02:57.694Z,51.50
2018-12-26T12:05:38.052Z,55.40
2018-12-26T12:08:18.188Z,53.77
2018-12-26T12:10:58.173Z,51.90
2018-12-26T12:13:38.226Z,54.77
2018-12-26T12:16:18.182Z,56.57
2018-12-26T12:18:58.294Z,59.90
2018-12-26T12:21:38.432Z,56.23
2018-12-26T12:24:18.503Z,51.10
2018-12-26T12:26:58.684Z,53.40
2018-12-26T12:29:38.599Z,51.97
2018-12-26T12:32:18.619Z,57.77
2018-12-26T12:34:58.470Z,56.97
2018-12-26T12:37:38.523Z,53.93
2018-12-26T12:40:18.512Z,51.73
2018-12-26T12:42:58.557Z,55.70
2018-12-26T12:45:38.690Z,51.93
2018-12-26T12:48:18.761Z,51.37
2018-12-26T12:50:58.949Z,52.50
2018-12-26T12:53:38.861Z,46.67
2018-12-26T12:56:18.766Z,52.27
2018-12-26T12:58:58.785Z,52.17
2018-12-26T13:01:38.777Z,53.00
2018-12-26T13:04:19.085Z,50.13
2018-12-26T13:06:58.896Z,50.63
2018-12-26T13:09:38.908Z,51.23
2018-12-26T13:12:18.995Z,49.10
2018-12-26T13:14:59.041Z,51.47
2018-12-26T13:17:38.837Z,49.93
2018-12-26T13:20:18.838Z,47.93
2018-12-26T13:22:59.008Z,52.13
2018-12-26T13:25:39.079Z,48.57
2018-12-26T13:28:18.958Z,45.53
2018-12-26T13:31:05.119Z,50.17
2018-12-26T13:33:41.218Z,53.53
2018-12-26T13:36:21.269Z,52.13
2018-12-26T13:39:01.249Z,49.87
2018-12-26T13:41:41.253Z,54.60
2018-12-26T13:44:21.349Z,48.73
2018-12-26T13:47:01.501Z,52.33
2018-12-26T13:49:41.410Z,55.07
2018-12-26T13:52:21.506Z,51.77
2018-12-26T13:55:01.445Z,49.60
2018-12-26T13:57:41.741Z,43.50
2018-12-26T14:00:21.858Z,52.90
2018-12-26T14:03:02.088Z,45.13
2018-12-26T14:05:42.106Z,54.40
2018-12-26T14:08:22.169Z,54.67
2018-12-26T14:11:02.013Z,55.47
2018-12-26T14:13:41.924Z,47.53
2018-12-26T14:16:21.915Z,45.93
2018-12-26T14:19:01.811Z,51.43
2018-12-26T14:21:41.850Z,51.53
2018-12-26T14:24:21.671Z,48.40
2018-12-26T14:27:01.670Z,47.80
2018-12-26T14:29:42.595Z,47.43
2018-12-26T14:32:22.776Z,49.40
2018-12-26T14:35:02.550Z,51.03
2018-12-26T14:37:42.801Z,45.20
2018-12-26T14:40:22.748Z,50.97
2018-12-26T14:43:02.710Z,48.10
2018-12-26T14:45:42.599Z,51.67
2018-12-26T14:48:22.509Z,55.77
2018-12-26T14:51:02.390Z,44.20
2018-12-26T14:53:42.480Z,58.60
2018-12-26T14:56:22.470Z,51.87
2018-12-26T14:59:02.527Z,48.63
2018-12-26T15:01:42.509Z,48.23
2018-12-26T15:04:22.753Z,48.07
2018-12-26T15:07:02.646Z,47.13
2018-12-26T15:09:42.758Z,47.97
2018-12-26T15:12:22.842Z,51.20
2018-12-26T15:15:02.987Z,46.33
2018-12-26T15:17:42.898Z,47.90
2018-12-26T15:20:23.014Z,45.00
2018-12-26T15:23:02.926Z,43.80
2018-12-26T15:25:43.098Z,48.57
2018-12-26T15:28:23.235Z,51.33
2018-12-26T15:31:03.234Z,44.63
2018-12-26T15:33:43.216Z,41.17
2018-12-26T15:36:23.123Z,47.27
2018-12-26T15:39:03.440Z,42.40
2018-12-26T15:41:43.250Z,44.67
2018-12-26T15:44:23.310Z,48.57
2018-12-26T15:47:03.317Z,45.80
2018-12-26T15:49:43.358Z,43.73
2018-12-26T15:52:23.378Z,41.47
2018-12-26T15:55:03.645Z,46.80
2018-12-26T15:57:43.873Z,41.53
2018-12-26T16:00:24.079Z,41.57
2018-12-26T16:03:04.065Z,44.17
2018-12-26T16:05:43.818Z,49.40
2018-12-26T16:08:23.901Z,50.67
2018-12-26T16:11:04.052Z,43.27
2018-12-26T16:13:43.966Z,47.33
2018-12-26T16:16:24.273Z,45.73
2018-12-26T16:19:04.437Z,47.40
2018-12-26T16:21:44.570Z,45.27
2018-12-26T16:24:24.514Z,43.67
2018-12-26T16:27:04.589Z,50.47
2018-12-26T16:29:44.422Z,50.57
2018-12-26T16:32:24.582Z,45.73
2018-12-26T16:35:04.577Z,48.93
2018-12-26T16:37:44.664Z,44.73
2018-12-26T16:40:24.742Z,51.30
2018-12-26T16:43:04.590Z,42.13
2018-12-26T16:45:44.642Z,49.83
2018-12-26T16:48:24.903Z,47.17
2018-12-26T16:51:05.136Z,51.43
2018-12-26T16:53:44.890Z,50.53
2018-12-26T16:56:24.965Z,52.93
2018-12-26T16:59:04.938Z,51.47
2018-12-26T17:01:45.092Z,48.67
2018-12-26T17:04:25.081Z,53.80
2018-12-26T17:07:05.342Z,49.33
2018-12-26T17:09:45.144Z,52.67
2018-12-26T17:12:25.277Z,51.13
2018-12-26T17:15:05.279Z,52.37
2018-12-26T17:17:45.346Z,50.40
2018-12-26T17:20:25.172Z,51.70
2018-12-26T17:23:05.186Z,50.53
2018-12-26T17:25:45.044Z,49.87
2018-12-26T17:28:25.172Z,51.77
2018-12-26T17:31:05.364Z,51.33
2018-12-26T17:33:45.361Z,48.63
2018-12-26T17:36:25.854Z,47.47
2018-12-26T17:39:06.277Z,46.07
2018-12-26T17:41:46.158Z,46.43
2018-12-26T17:44:26.590Z,46.27
2018-12-26T17:47:06.589Z,46.17
2018-12-26T17:49:46.608Z,38.07
2018-12-26T17:52:27.182Z,45.67
2018-12-26T17:55:07.011Z,42.07
2018-12-26T17:57:46.957Z,46.23
2018-12-26T18:00:27.152Z,43.97
2018-12-26T18:03:06.934Z,47.17
2018-12-26T18:05:47.001Z,52.07
2018-12-26T18:08:27.051Z,45.13
2018-12-26T18:11:07.263Z,46.53
2018-12-26T18:13:47.512Z,45.60
2018-12-26T18:16:27.193Z,45.13
2018-12-26T18:19:07.071Z,46.53
2018-12-26T18:21:46.934Z,46.33
2018-12-26T18:24:26.992Z,45.10
2018-12-26T18:27:06.635Z,46.37
2018-12-26T18:29:46.737Z,46.17
2018-12-26T18:32:26.661Z,46.33
2018-12-26T18:35:06.769Z,41.27
2018-12-26T18:37:46.785Z,42.43
2018-12-26T18:40:26.889Z,39.63
2018-12-26T18:43:07.248Z,41.67
2018-12-26T18:45:47.238Z,43.10
2018-12-26T18:48:27.201Z,41.60
2018-12-26T18:51:07.088Z,42.77
2018-12-26T18:53:47.173Z,42.70
2018-12-26T18:56:27.263Z,42.63
2018-12-26T18:59:07.391Z,39.33
2018-12-26T19:01:47.299Z,42.47
2018-12-26T19:04:27.453Z,42.40
2018-12-26T19:07:07.521Z,41.80
2018-12-26T19:09:47.549Z,42.77
2018-12-26T19:12:27.626Z,41.93
2018-12-26T19:15:07.666Z,43.70
2018-12-26T19:17:47.679Z,40.00
2018-12-26T19:20:27.662Z,50.50
2018-12-26T19:23:07.855Z,41.50
2018-12-26T19:25:48.040Z,50.40
2018-12-26T19:28:27.929Z,45.93
2018-12-26T19:31:08.202Z,40.23
2018-12-26T19:33:48.159Z,49.43
2018-12-26T19:36:28.401Z,44.73
2018-12-26T19:39:08.225Z,47.53
2018-12-26T19:41:48.336Z,49.67
2018-12-26T19:44:28.283Z,54.93
2018-12-26T19:47:08.522Z,49.30
2018-12-26T19:49:48.306Z,48.50
2018-12-26T19:52:28.501Z,58.33
2018-12-26T19:55:08.335Z,53.10
2018-12-26T19:57:48.369Z,51.07
2018-12-26T20:00:28.407Z,48.33
2018-12-26T20:03:08.466Z,53.03
2018-12-26T20:05:48.442Z,56.00
2018-12-26T20:08:28.549Z,55.80
2018-12-26T20:11:08.405Z,50.37
2018-12-26T20:13:48.336Z,56.03
2018-12-26T20:16:28.296Z,53.90
2018-12-26T20:19:08.477Z,60.63
2018-12-26T20:21:48.528Z,47.70
2018-12-26T20:24:29.550Z,51.67
2018-12-26T20:27:09.418Z,55.27
2018-12-26T20:29:49.234Z,57.70
2018-12-26T20:32:29.204Z,50.20
2018-12-26T20:35:09.112Z,52.40
2018-12-26T20:37:49.132Z,45.73
2018-12-26T20:40:29.121Z,49.70
2018-12-26T20:43:09.037Z,50.03
2018-12-26T20:45:49.184Z,51.40
2018-12-26T20:48:29.017Z,51.80
2018-12-26T20:51:08.945Z,49.33
2018-12-26T20:53:50.163Z,51.80
2018-12-26T20:56:30.149Z,54.60
2018-12-26T20:59:10.300Z,48.63
2018-12-26T21:01:50.450Z,51.63
2018-12-26T21:04:30.374Z,52.97
2018-12-26T21:07:10.305Z,50.87
2018-12-26T21:09:50.440Z,53.60
2018-12-26T21:12:30.533Z,52.67
2018-12-26T21:15:10.600Z,51.97
2018-12-26T21:17:50.638Z,49.50
2018-12-26T21:20:30.920Z,53.83
2018-12-26T21:23:10.793Z,55.87
2018-12-26T21:25:50.998Z,51.23
2018-12-26T21:28:31.186Z,50.60
2018-12-26T21:31:11.067Z,54.20
2018-12-26T21:33:51.027Z,59.40
2018-12-26T21:36:31.091Z,51.70
2018-12-26T21:39:11.202Z,52.13
2018-12-26T21:41:51.150Z,50.40
2018-12-26T21:44:31.162Z,53.63
2018-12-26T21:47:10.933Z,48.23
2018-12-26T21:49:50.940Z,54.10
2018-12-26T21:52:30.606Z,50.10
2018-12-26T21:55:10.918Z,57.13
2018-12-26T21:57:50.774Z,52.53
2018-12-26T22:00:30.894Z,51.87
2018-12-26T22:03:10.793Z,53.27
2018-12-26T22:05:50.896Z,60.33
2018-12-26T22:08:30.845Z,61.27
2018-12-26T22:11:11.011Z,55.77
2018-12-26T22:13:51.010Z,54.20
2018-12-26T22:16:31.293Z,63.80
2018-12-26T22:19:12.895Z,61.97
2018-12-26T22:21:53.453Z,57.07
2018-12-26T22:24:33.456Z,63.10
2018-12-26T22:27:13.835Z,60.87
2018-12-26T22:29:53.828Z,54.67
2018-12-26T22:32:33.871Z,67.17
2018-12-26T22:35:13.855Z,58.60
2018-12-26T22:37:53.988Z,67.50
2018-12-26T22:40:33.929Z,69.13
2018-12-26T22:43:14.064Z,59.80
2018-12-26T22:45:54.045Z,53.00
2018-12-26T22:48:33.809Z,61.20
2018-12-26T22:51:13.936Z,56.77
2018-12-26T22:53:53.988Z,59.27
2018-12-26T22:56:34.184Z,58.17
2018-12-26T22:59:14.274Z,54.17
2018-12-26T23:01:54.565Z,54.47
2018-12-26T23:04:34.324Z,61.57
2018-12-26T23:07:14.334Z,53.30
2018-12-26T23:09:54.298Z,46.57
2018-12-26T23:12:34.496Z,49.77
2018-12-26T23:15:14.556Z,50.50
2018-12-26T23:17:54.545Z,50.90
2018-12-26T23:20:34.311Z,48.43
2018-12-26T23:23:14.399Z,44.23
2018-12-26T23:25:54.519Z,49.00
2018-12-26T23:28:34.669Z,44.10
2018-12-26T23:31:14.868Z,45.67
2018-12-26T23:33:54.834Z,44.90
2018-12-26T23:36:34.717Z,44.57
2018-12-26T23:39:14.805Z,47.13
2018-12-26T23:41:54.704Z,47.70
2018-12-26T23:44:34.769Z,45.43
2018-12-26T23:47:14.715Z,42.77
2018-12-26T23:49:54.941Z,44.20
2018-12-26T23:52:34.844Z,39.43
2018-12-26T23:55:14.896Z,38.10
2018-12-26T23:57:54.910Z,45.07
